Pitzer, Iowa
Current Conditions -  °F | °C
As of 9:54 PM on Friday 24 Oct 2014 (Local Time) from KDSM Reporting Station
Haze Haze  
Wind Chill: 59°   Ceiling: 25000
Heat Index: 59°   Visibility: 0.75mi
Dew Point: 58°   Wind: 6mph
Humidity: 96%   Direction: 180°S
Pressure: 29.95"   Gusts: NA
Location:  41.4312°N, 94.1464°W
Report Text: KDSM 250254Z 18005KT 3/4SM R31/2800VP6000FT BR BKN250 15/14 A2995 RMK AO2 TWR VIS 3 SLP141 T01500144 51007
Loading
Personal Weather Stations






























Interactive Weather Map
Tropical Storm Tracking
New forecast layout! Learn more

10-Day Weather Forecast

Advertisements
Track Severe Weather on mobile